Flight Track Log - Related Links

Times and Time Zones

All times are in EDT time to prevent confusion due to time zone crossing. See the LXJ267 flight status page for this flight to view local times or setup timezone preferences in your user account.

Time Position Orientation Groundspeed Altitude Reporting Facility
EDT Latitude Longitude Course Direction KTS MPH feet Rate Location/Type
Wed 11:47:44 AM 41.3644 -70.7419 233° Southwest 219 252 7,500  Level Boston Center
Wed 11:48:44 AM 41.4194 -70.8014 321° Northwest 245 282 10,300 3,150 Climbing Boston Center
Wed 11:49:44 AM 41.4831 -70.8883 314° West 288 331 13,800 3,200 Climbing Boston Center
Wed 11:50:44 AM 41.5072 -70.9819 289° West 298 343 16,700 2,450 Climbing Boston Center
Wed 11:51:44 AM 41.4314 -71.0639 219° Southwest 247 284 18,700 2,200 Climbing Boston Center
Wed 11:52:00 AM 41.3036 -71.3274 231° Southwest  Level FlightAware Approximate
Wed 11:52:44 AM 41.3569 -71.1347 216° Southwest 319 367 21,100  Level Boston Center
Wed 11:53:00 AM 41.2375 -71.4430 233° Southwest  Level FlightAware Approximate
Wed 11:53:44 AM 41.2744 -71.2111 215° Southwest 352 405 23,600  Level Boston Center
Wed 11:54:44 AM 41.2258 -71.3306 242° Southwest 358 412 25,600 2,000 Climbing Boston Center
Wed 11:55:44 AM 41.1875 -71.4583 248° West 365 420 27,600 1,950 Climbing Boston Center
Wed 11:56:44 AM 41.1447 -71.5856 246° West 372 428 29,500 1,750 Climbing Boston Center
Wed 11:57:44 AM 41.0978 -71.7350 247° West 400 460 31,100 1,650 Climbing Boston Center
Wed 11:58:44 AM 41.0608 -71.8619 249° West 411 473 32,800 4,450 Climbing Boston Center
Wed 11:59:44 AM 41.0178 -72.0028 248° West 417 480 40,000 2,100 Climbing Boston Center
Wed 12:00:44 PM 40.9389 -72.1103 226° Southwest 402 463 37,000 -500 Descending Boston Center
Wed 12:01:44 PM 40.8600 -72.2094 224° Southwest 402 463 39,000 1,500 Climbing Boston Center
Wed 12:02:44 PM 40.7789 -72.3114 224° Southwest 402 463 40,000 500 Climbing Boston Center
Wed 12:03:44 PM 40.6958 -72.4044 220° Southwest 402 463 40,000  Level Boston Center
Wed 12:04:44 PM 40.6144 -72.5056 223° Southwest 402 463 40,000  Level Boston Center
Wed 12:05:44 PM 40.5350 -72.6067 224° Southwest 402 463 40,000  Level Boston Center
Wed 12:06:44 PM 40.4517 -72.7072 223° Southwest 402 463 40,000  Level Boston Center
Wed 12:07:44 PM 40.3681 -72.8078 223° Southwest 402 463 40,000  Level Boston Center
Wed 12:08:44 PM 40.2883 -72.9081 224° Southwest 402 463 40,000  Level Boston Center
Wed 12:09:44 PM 40.1983 -73.0050 219° Southwest 402 463 40,000  Level Boston Center
Wed 12:10:44 PM 40.1208 -73.1075 225° Southwest 402 463 40,000  Level Boston Center
Wed 12:11:39 PM 40.0417 -73.2067 224° Southwest 401 461 40,000  Level Washington Center
Wed 12:12:41 PM 39.9606 -73.3069 223° Southwest 391 450 40,000  Level Washington Center
Wed 12:13:41 PM 39.8811 -73.4042 223° Southwest 396 456 40,000  Level Washington Center
Wed 12:14:40 PM 39.8014 -73.5011 223° Southwest 396 456 40,000  Level Washington Center
Wed 12:15:40 PM 39.7197 -73.5953 222° Southwest 396 456 40,000  Level Washington Center
Wed 12:16:40 PM 39.6358 -73.6972 223° Southwest 402 463 40,000  Level Washington Center
Wed 12:17:41 PM 39.5583 -73.7936 224° Southwest 402 463 40,000  Level Washington Center
Wed 12:18:39 PM 39.4722 -73.8897 221° Southwest 408 470 40,000  Level Washington Center
Wed 12:19:40 PM 39.3903 -73.9883 223° Southwest 408 470 40,000  Level Washington Center
Wed 12:20:41 PM 39.3061 -74.0869 222° Southwest 408 470 40,000  Level Washington Center
Wed 12:21:41 PM 39.2258 -74.1822 223° Southwest 408 470 40,000  Level Washington Center
Wed 12:22:38 PM 39.1417 -74.2803 222° Southwest 408 470 40,000  Level Washington Center
Wed 12:23:41 PM 39.0572 -74.3808 223° Southwest 413 475 40,000  Level Washington Center
Wed 12:24:41 PM 38.9642 -74.4622 214° Southwest 413 475 40,000  Level Washington Center
Wed 12:25:39 PM 38.8669 -74.5358 211° Southwest 413 475 40,000  Level Washington Center
Wed 12:26:40 PM 38.7717 -74.6144 213° Southwest 408 470 40,000  Level Washington Center
Wed 12:27:41 PM 38.6764 -74.6928 213° Southwest 408 470 40,000  Level Washington Center
Wed 12:28:39 PM 38.5831 -74.7736 214° Southwest 408 470 40,000  Level Washington Center
Wed 12:29:39 PM 38.4919 -74.8569 216° Southwest 414 476 40,000  Level Washington Center
Wed 12:30:41 PM 38.3986 -74.9347 213° Southwest 414 476 40,000  Level Washington Center
Wed 12:31:39 PM 38.3258 -75.0042 217° Southwest 414 476 40,000  Level Washington Center
Wed 12:32:39 PM 38.2222 -75.1081 218° Southwest 407 468 40,000  Level Washington Center
Wed 12:33:40 PM 38.1328 -75.1853 214° Southwest 407 468 40,000  Level Washington Center
Wed 12:34:41 PM 38.0456 -75.2781 220° Southwest 407 468 40,000  Level Washington Center
Wed 12:35:39 PM 37.9664 -75.3731 223° Southwest 407 468 40,000  Level Washington Center
Wed 12:36:40 PM 37.8831 -75.4628 220° Southwest 401 461 40,000  Level Washington Center
Wed 12:37:41 PM 37.8019 -75.5603 224° Southwest 401 461 40,000  Level Washington Center
Wed 12:38:39 PM 37.7164 -75.6417 217° Southwest 401 461 40,000  Level Washington Center
Wed 12:39:39 PM 37.6267 -75.7281 217° Southwest 401 461 40,000  Level Washington Center
Wed 12:40:40 PM 37.5389 -75.8144 218° Southwest 401 461 40,000  Level Washington Center
Wed 12:41:40 PM 37.4469 -75.8925 214° Southwest 407 468 40,000  Level Washington Center
Wed 12:42:41 PM 37.3569 -75.9758 216° Southwest 407 468 40,000  Level Washington Center
Wed 12:43:41 PM 37.2608 -76.0564 214° Southwest 407 468 40,000  Level Washington Center
Wed 12:44:39 PM 37.1708 -76.1339 214° Southwest 407 468 40,000  Level Washington Center
Wed 12:45:40 PM 37.0767 -76.1958 208° Southwest 412 474 40,000  Level Washington Center
Wed 12:46:41 PM 36.9803 -76.2861 217° Southwest 412 474 40,000  Level Washington Center
Wed 12:47:39 PM 36.8919 -76.3736 218° Southwest 414 476 40,000  Level Washington Center
Wed 12:48:40 PM 36.8142 -76.4611 222° Southwest 414 476 40,000  Level Washington Center
Wed 12:49:40 PM 36.7281 -76.5533 221° Southwest 414 476 40,000  Level Washington Center
Wed 12:50:41 PM 36.6417 -76.6661 226° Southwest 414 476 40,000  Level Washington Center
Wed 12:51:41 PM 36.5572 -76.7608 222° Southwest 414 476 40,000  Level Washington Center
Wed 12:52:39 PM 36.4853 -76.8475 224° Southwest 409 471 40,000  Level Washington Center
Wed 12:53:39 PM 36.4028 -76.9544 226° Southwest 404 465 40,000  Level Washington Center
Wed 12:54:40 PM 36.3308 -77.0436 225° Southwest 404 465 40,000  Level Washington Center
Wed 12:55:41 PM 36.2422 -77.1244 216° Southwest 404 465 40,000  Level Washington Center
Wed 12:56:41 PM 36.1597 -77.2025 217° Southwest 397 457 40,000  Level Washington Center
Wed 12:57:39 PM 36.0711 -77.2828 216° Southwest 397 457 40,000  Level Washington Center
Wed 12:58:40 PM 35.9822 -77.3631 216° Southwest 397 457 40,000  Level Washington Center
Wed 12:59:41 PM 35.8914 -77.4356 213° Southwest 397 457 40,000  Level Washington Center
Wed 01:00:39 PM 35.7844 -77.4792 198° South 392 451 40,000  Level Washington Center
Wed 01:01:40 PM 35.6817 -77.5175 197° South 392 451 40,000  Level Washington Center
Wed 01:02:41 PM 35.5725 -77.5533 195° South 397 457 40,000  Level Washington Center
Wed 01:03:39 PM 35.4594 -77.5836 192° South 404 465 40,000  Level Washington Center
Wed 01:04:40 PM 35.3461 -77.6139 192° South 415 478 40,000  Level Washington Center
Wed 01:05:40 PM 35.2267 -77.6492 194° South 415 478 40,000  Level Washington Center
Wed 01:06:41 PM 35.1194 -77.6972 200° South 415 478 40,000  Level Washington Center
Wed 01:07:39 PM 35.0119 -77.7500 202° Southwest 415 478 40,000  Level Washington Center
Wed 01:08:40 PM 34.9067 -77.8106 205° Southwest 415 478 40,000  Level Washington Center
Wed 01:09:41 PM 34.8111 -77.8864 213° Southwest 420 483 40,000  Level Washington Center
Wed 01:10:41 PM 34.7258 -77.9800 222° Southwest 420 483 40,000  Level Washington Center
Wed 01:11:39 PM 34.6383 -78.0811 224° Southwest 425 489 40,000  Level Washington Center
Wed 01:12:39 PM 34.5528 -78.1817 224° Southwest 430 495 40,000 166 Level Washington Center
Wed 01:14:40 PM 34.3936 -78.3683 224° Southwest 432 497 40,500 331 Climbing Jacksonville Center
Wed 01:15:40 PM 34.3033 -78.4661 222° Southwest 432 497 41,000 250 Climbing Jacksonville Center
Wed 01:16:40 PM 34.2172 -78.5683 224° Southwest 432 497 41,000  Level Jacksonville Center
Wed 01:17:40 PM 34.1306 -78.6631 222° Southwest 438 504 41,000  Level Jacksonville Center
Wed 01:18:40 PM 34.0461 -78.7572 223° Southwest 438 504 41,000  Level Jacksonville Center
Wed 01:19:40 PM 33.9594 -78.8542 223° Southwest 433 498 41,000  Level Jacksonville Center
Wed 01:20:40 PM 33.8772 -78.9528 225° Southwest 433 498 41,000  Level Jacksonville Center
Wed 01:21:40 PM 33.7928 -79.0567 226° Southwest 433 498 41,000  Level Jacksonville Center
Wed 01:22:40 PM 33.7144 -79.1625 228° Southwest 433 498 41,000  Level Jacksonville Center
Wed 01:23:40 PM 33.6344 -79.2756 230° Southwest 415 478 41,000  Level Jacksonville Center
Wed 01:24:40 PM 33.5622 -79.3831 231° Southwest 420 483 41,000  Level Jacksonville Center
Wed 01:25:40 PM 33.4878 -79.4883 230° Southwest 420 483 41,000  Level Jacksonville Center
Wed 01:26:40 PM 33.4156 -79.5956 231° Southwest 420 483 41,000 -350 Level Jacksonville Center
Wed 01:27:40 PM 33.3453 -79.7025 232° Southwest 420 483 40,300 -500 Descending Jacksonville Center
Wed 01:28:40 PM 33.2731 -79.8144 232° Southwest 420 483 40,000 -150 Descending Jacksonville Center
Wed 01:29:40 PM 33.2006 -79.9236 232° Southwest 427 491 40,000  Level Jacksonville Center
Wed 01:30:40 PM 33.1150 -80.0183 223° Southwest 422 486 40,000  Level Jacksonville Center
Wed 01:31:40 PM 33.0286 -80.0731 208° Southwest 416 479 40,000  Level Jacksonville Center
Wed 01:32:40 PM 32.9092 -80.1486 208° Southwest 439 505 40,000  Level Jacksonville Center
Wed 01:33:40 PM 32.8106 -80.2256 213° Southwest 445 512 40,000  Level Jacksonville Center
Wed 01:34:40 PM 32.7144 -80.3125 217° Southwest 439 505 40,000  Level Jacksonville Center
Wed 01:35:40 PM 32.6200 -80.3942 216° Southwest 433 498 40,000  Level Jacksonville Center
Wed 01:36:40 PM 32.5233 -80.4781 216° Southwest 433 498 40,000  Level Jacksonville Center
Wed 01:37:40 PM 32.4289 -80.5592 216° Southwest 433 498 40,000  Level Jacksonville Center
Wed 01:38:40 PM 32.3344 -80.6428 217° Southwest 433 498 40,000  Level Jacksonville Center
Wed 01:39:40 PM 32.2378 -80.7264 216° Southwest 433 498 40,000  Level Jacksonville Center
Wed 01:40:40 PM 32.1369 -80.8119 216° Southwest 420 483 40,000  Level Jacksonville Center
Wed 01:41:40 PM 32.0358 -80.8953 215° Southwest 439 505 40,000  Level Jacksonville Center
Wed 01:42:40 PM 31.9472 -80.9681 215° Southwest 445 512 40,000  Level Jacksonville Center
Wed 01:43:40 PM 31.8400 -81.0608 216° Southwest 445 512 40,000  Level Jacksonville Center
Wed 01:44:40 PM 31.7453 -81.1408 216° Southwest 439 505 40,000  Level Jacksonville Center
Wed 01:45:40 PM 31.6628 -81.2133 217° Southwest 427 491 40,000  Level Jacksonville Center
Wed 01:46:40 PM 31.5594 -81.2981 215° Southwest 427 491 40,000  Level Jacksonville Center
Wed 01:47:40 PM 31.4664 -81.3775 216° Southwest 416 479 40,000  Level Jacksonville Center
Wed 01:48:40 PM 31.3817 -81.4469 215° Southwest 421 484 40,000  Level Jacksonville Center
Wed 01:49:40 PM 31.2867 -81.5336 218° Southwest 429 494 40,000  Level Jacksonville Center
Wed 01:50:40 PM 31.1914 -81.6128 215° Southwest 429 494 40,000  Level Jacksonville Center
Wed 01:51:40 PM 31.0981 -81.6917 216° Southwest 429 494 40,000  Level Jacksonville Center
Wed 01:52:40 PM 31.0008 -81.7706 215° Southwest 429 494 40,000  Level Jacksonville Center
Wed 01:53:40 PM 30.9075 -81.8489 216° Southwest 429 494 40,000  Level Jacksonville Center
Wed 01:54:40 PM 30.8119 -81.9300 216° Southwest 429 494 40,000  Level Jacksonville Center
Wed 01:55:40 PM 30.7186 -82.0081 216° Southwest 429 494 40,000  Level Jacksonville Center
Wed 01:56:40 PM 30.6125 -82.0839 212° Southwest 429 494 40,000  Level Jacksonville Center
Wed 01:57:40 PM 30.5106 -82.0994 187° South 409 471 40,000  Level Jacksonville Center
Wed 01:58:40 PM 30.3956 -82.1097 184° South 404 465 40,000  Level Jacksonville Center
Wed 01:59:40 PM 30.2706 -82.1231 185° South 432 497 40,000  Level Jacksonville Center
Wed 02:00:40 PM 30.1472 -82.1358 185° South 446 513 40,000  Level Jacksonville Center
Wed 02:01:40 PM 30.0139 -82.1514 186° South 446 513 40,000 -150 Level Jacksonville Center
Wed 02:02:40 PM 29.8950 -82.1619 184° South 446 513 39,700 -1,000 Descending Jacksonville Center
Wed 02:03:40 PM 29.7781 -82.1747 185° South 441 507 38,000 -1,600 Descending Jacksonville Center
Wed 02:04:40 PM 29.6736 -82.1778 181° South 429 494 36,500 -1,800 Descending Jacksonville Center
Wed 02:05:40 PM 29.5528 -82.1906 185° South 429 494 34,400 -2,300 Descending Jacksonville Center
Wed 02:06:40 PM 29.4233 -82.2036 185° South 441 507 31,900 -2,500 Descending Jacksonville Center
Wed 02:07:40 PM 29.3003 -82.2139 184° South 454 522 29,400 -2,500 Descending Jacksonville Center
Wed 02:08:40 PM 29.1772 -82.2242 184° South 449 517 26,900 -2,500 Descending Jacksonville Center
Wed 02:09:40 PM 29.0603 -82.2392 186° South 438 504 24,400 -1,950 Descending Jacksonville Center
Wed 02:10:40 PM 28.9456 -82.2803 197° South 433 498 23,000 -1,150 Descending Jacksonville Center
Wed 02:11:40 PM 28.8353 -82.3167 196° South 427 491 22,100 -900 Descending Jacksonville Center
Wed 02:12:40 PM 28.7206 -82.3456 192° South 427 491 21,200 -550 Descending Jacksonville Center
Wed 02:13:40 PM 28.6100 -82.3842 197° South 421 484 21,000 -100 Descending Jacksonville Center
Wed 02:14:40 PM 28.5017 -82.4319 201° Southwest 416 479 21,000 -500 Level Jacksonville Center
Wed 02:15:40 PM 28.3956 -82.4772 201° Southwest 416 479 20,000 -1,206 Descending Jacksonville Center
Wed 02:18:04 PM 28.1356 -82.5514 194° South 406 467 16,900 -912 Descending Miami Center
Wed 02:19:04 PM 28.0339 -82.5392 174° South 385 443 16,900 56 Level Miami Center
Wed 02:19:52 PM 27.9500 -82.5333 176° South 356 410 17,000 -1,600 Climbing Tampa TRACON
Wed 02:21:04 PM 27.8333 -82.5167 173° South 322 371 13,700 -2,714 Descending Tampa TRACON
Wed 02:21:58 PM 27.7500 -82.5167 180° South 312 359 11,300 -1,684 Descending Tampa TRACON
Wed 02:22:58 PM 27.6833 -82.5333 192° South 279 321 10,500 -650 Descending Tampa TRACON
Wed 02:23:58 PM 27.6000 -82.5500 190° South 278 320 10,000 -524 Descending Tampa TRACON
Wed 02:25:04 PM 27.5167 -82.5500 180° South 260 299 9,400 -952 Descending Tampa TRACON
Wed 02:26:04 PM 27.4500 -82.5667 193° South 250 288 8,000 -850 Descending Tampa TRACON
Wed 02:27:04 PM 27.3833 -82.6000 204° Southwest 235 270 7,700 -1,000 Descending Tampa TRACON
Wed 02:28:04 PM 27.3167 -82.6000 180° South 249 287 6,000 -1,350 Descending Tampa TRACON
Wed 02:29:04 PM 27.2500 -82.5833 167° South 256 295 5,000 -500 Descending Tampa TRACON
Wed 02:30:04 PM 27.1833 -82.5667 167° South 245 282 5,000  Level Tampa TRACON
Wed 02:31:04 PM 27.1167 -82.5333 156° South 251 289 5,000  Level Tampa TRACON
Wed 02:32:04 PM 27.0500 -82.5167 167° South 251 289 5,000  Level Tampa TRACON
Wed 02:33:05 PM 26.9833 -82.4833 156° South 249 287 5,000  Level Tampa TRACON
Wed 02:34:11 PM 26.9167 -82.4667 167° South 240 276 5,000  Level Tampa TRACON
Wed 02:35:05 PM 26.8667 -82.4333 149° Southeast 238 274 5,000 -250 Level Tampa TRACON
Wed 02:36:11 PM 26.8000 -82.3833 146° Southeast 237 273 4,500 -455 Descending Tampa TRACON
Wed 02:38:00 PM 26.8647 -82.1703 55° Northeast  Level Estimated
Wed 02:45:00 PM 26.9167 -81.9833 130° Southeast  Level FlightAware Approximate
Wed 02:46:00 PM 26.9189 -81.9909 130° Southeast  Level Estimated

Login

Don't have an account? Register now (free) for customized features, flight alerts, and more!